Meteo Giornale » Osservazioni meteo Arabia Saudita » Tabuk
ore: 21:00 - Osservazioni Meteo Tabuk
Lat. 28° 22' N Lon. 36° 36' E Alt. 778 metri s.l.m.
32 °C
Sereno
Temp. 24 Ore
23 °C
35 °C
Nord
11.1 Km/h
Dew point 2 °C
Umidità 14 %
Visibilità 10 Km
Il sole sorge alle ore 06:11
Il sole tramonta alle ore 18:56
| Data e Ora | Cielo e Fenomeni | T °C | DP °C | Um. % | Pres. hPa | Vis. km | Vento km/h | |
|---|---|---|---|---|---|---|---|---|
| Oggi h: 21:00 | Sereno | 32 | 2 | 14 | 1011 | 10 | N 11.1 | |
| Oggi h: 20:00 | Sereno | 33 | 2 | 14 | 1010 | 10 | N 9.3 | |
| Oggi h: 19:00 | Sereno | 34 | 2 | 13 | 1010 | 10 | N/NE 14.8 | |
| Oggi h: 18:00 | Sereno | 35 | 3 | 13 | 1009 | 10 | N/NE 20.3 | |
| Oggi h: 17:00 | Sereno | 35 | 4 | 14 | 1009 | 10 | O/NO 11.1 | |
| Oggi h: 16:00 | Sereno | 35 | 4 | 14 | 1010 | 10 | N 9.3 | |
| Oggi h: 15:00 | Sereno | 34 | 5 | 16 | 1010 | 10 | N 13 | |
| Oggi h: 14:00 | Sereno | 33 | 6 | 18 | 1011 | 10 | NE 9.3 | |
| Oggi h: 13:00 | Sereno | 32 | 8 | 22 | 1012 | 10 | E/SE 7.4 | |
| Oggi h: 12:00 | Sereno | 30 | 9 | 27 | 1013 | 10 | E/SE 11.1 | |
| Oggi h: 11:00 | Sereno | 29 | 11 | 32 | 1013 | 10 | E 9.3 | |
| Oggi h: 10:00 | Sereno | 28 | 11 | 34 | 1014 | 10 | NE 7.4 | |
| Oggi h: 09:00 | Sereno | 26 | 10 | 36 | 1014 | 10 | N 5.5 | |
| Oggi h: 08:00 | Sereno | 24 | 11 | 43 | 1013 | 10 | N/NE 7.4 | |
| Oggi h: 07:00 | Sereno | 23 | 11 | 46 | 1013 | 10 | N 7.4 | |
| Oggi h: 06:00 | Sereno | 24 | 11 | 43 | 1013 | 10 | N 9.3 | |
| Oggi h: 05:00 | Sereno | 24 | 11 | 43 | 1012 | 10 | N 11.1 | |
| Oggi h: 04:00 | Sereno | 25 | 11 | 41 | 1012 | 10 | N 14.8 | |
| Oggi h: 03:00 | Sereno | 25 | 11 | 41 | 1012 | 10 | N 16.7 | |
| Oggi h: 02:00 | Sereno | 26 | 11 | 39 | 1012 | 10 | N 16.7 | |
| Oggi h: 01:00 | Sereno | 27 | 11 | 36 | 1012 | 10 | N 18.5 | |
| Oggi h: 00:00 | Sereno | 28 | 9 | 30 | 1012 | 10 | N 18.5 | |
| Ieri h: 23:00 | Sereno | 29 | 6 | 23 | 1012 | 10 | N 18.5 | |
| Ieri h: 22:00 | Sereno | 30 | 2 | 16 | 1011 | 10 | N 22.2 | |



